createdAt,value
2022-09-11T00:01:29.618Z,100400.38
2022-09-11T00:04:00.041Z,100394.22
2022-09-11T00:06:30.113Z,100401.75
2022-09-11T00:09:00.248Z,100406.03
2022-09-11T00:11:29.374Z,100408.53
2022-09-11T00:13:57.578Z,100399.16
2022-09-11T00:16:29.055Z,100393.94
2022-09-11T00:19:02.169Z,100398.59
2022-09-11T00:21:30.301Z,100409.03
2022-09-11T00:23:58.627Z,100409.78
2022-09-11T00:26:26.514Z,100411.00
2022-09-11T00:28:56.247Z,100412.97
2022-09-11T00:31:25.638Z,100409.28
2022-09-11T00:33:55.013Z,100421.53
2022-09-11T00:36:24.612Z,100422.09
2022-09-11T00:38:52.263Z,100419.97
2022-09-11T00:41:21.465Z,100422.00
2022-09-11T00:43:59.488Z,100420.81
2022-09-11T00:46:34.325Z,100417.63
2022-09-11T00:49:07.818Z,100425.47
2022-09-11T00:51:38.576Z,100418.19
2022-09-11T00:54:06.498Z,100420.94
2022-09-11T00:56:38.031Z,100425.31
2022-09-11T00:59:07.009Z,100426.69
2022-09-11T01:01:34.658Z,100434.63
2022-09-11T01:04:04.952Z,100435.44
2022-09-11T01:06:33.370Z,100436.72
2022-09-11T01:09:01.062Z,100430.91
2022-09-11T01:11:43.029Z,100440.00
2022-09-11T01:14:26.101Z,100436.03
2022-09-11T01:16:57.885Z,100441.88
2022-09-11T01:19:42.124Z,100447.50
2022-09-11T01:25:09.415Z,100440.06
2022-09-11T01:27:42.317Z,100445.31
2022-09-11T01:30:12.469Z,100452.41
2022-09-11T01:33:02.912Z,100448.94
2022-09-11T01:35:42.857Z,100445.25
2022-09-11T01:38:22.583Z,100445.25
2022-09-11T01:40:55.480Z,100446.97
2022-09-11T01:43:27.612Z,100439.34
2022-09-11T01:45:56.333Z,100461.59
2022-09-11T01:48:26.715Z,100457.91
2022-09-11T01:50:56.966Z,100462.59
2022-09-11T01:53:30.090Z,100467.31
2022-09-11T01:55:59.639Z,100467.31
2022-09-11T01:59:10.956Z,65387.91
2022-09-11T02:01:55.184Z,100467.31
2022-09-11T02:04:29.679Z,65387.91
2022-09-11T02:07:02.165Z,100464.63
2022-09-11T02:09:35.303Z,100477.41
2022-09-11T02:13:06.564Z,65387.91
2022-09-11T02:16:45.707Z,65387.91
2022-09-11T02:20:13.635Z,65387.91
2022-09-11T02:23:39.751Z,65387.91
2022-09-11T02:27:07.777Z,65387.91
2022-09-11T02:30:35.180Z,65387.91
2022-09-11T02:34:02.558Z,65387.91
2022-09-11T02:37:41.349Z,65387.91
2022-09-11T02:41:19.640Z,65387.91
2022-09-11T02:44:36.151Z,100477.41
2022-09-11T02:48:14.169Z,65387.91
2022-09-11T02:51:47.437Z,65387.91
2022-09-11T02:54:25.468Z,100490.56
2022-09-11T02:57:01.129Z,100490.88
2022-09-11T02:59:33.916Z,100492.72
2022-09-11T03:02:02.019Z,100495.41
2022-09-11T03:05:21.289Z,77466.47
2022-09-11T03:07:49.039Z,100503.63
2022-09-11T03:10:16.476Z,100510.09
2022-09-11T03:12:43.839Z,100503.91
2022-09-11T03:15:13.230Z,100522.63
2022-09-11T03:18:07.037Z,100522.63
2022-09-11T03:20:38.127Z,100510.00
2022-09-11T03:23:08.162Z,100514.16
2022-09-11T03:25:35.563Z,100509.63
2022-09-11T03:28:04.546Z,100511.34
2022-09-11T03:30:32.064Z,100516.78
2022-09-11T03:33:00.562Z,100507.66
2022-09-11T03:35:28.022Z,100515.34
2022-09-11T03:37:57.635Z,100515.66
2022-09-11T03:40:25.007Z,100512.16
2022-09-11T03:42:52.923Z,100516.72
2022-09-11T03:45:25.020Z,100514.84
2022-09-11T03:47:53.667Z,100522.00
2022-09-11T03:50:21.164Z,100516.16
2022-09-11T03:52:48.510Z,100520.75
2022-09-11T03:55:17.663Z,100519.16
2022-09-11T03:57:45.017Z,100519.16
2022-09-11T04:00:13.377Z,100519.16
2022-09-11T04:02:42.034Z,100519.16
2022-09-11T04:05:10.569Z,100519.16
2022-09-11T04:07:38.483Z,100519.16
2022-09-11T04:10:07.619Z,100519.16
2022-09-11T04:12:36.578Z,100519.16
2022-09-11T04:15:04.229Z,100519.16
2022-09-11T04:17:31.573Z,100519.16
2022-09-11T04:19:58.955Z,65387.91
2022-09-11T04:22:28.479Z,65387.91
2022-09-11T04:24:57.343Z,65387.91
2022-09-11T04:27:27.078Z,100519.16
2022-09-11T04:29:55.753Z,100519.16
2022-09-11T04:32:23.095Z,100519.16
2022-09-11T04:34:50.467Z,100519.16
2022-09-11T04:37:19.776Z,77415.44
2022-09-11T04:42:14.589Z,77415.44
2022-09-11T04:44:41.967Z,65387.91
2022-09-11T04:47:10.667Z,65387.91
2022-09-11T04:49:38.024Z,65387.91
2022-09-11T04:52:07.127Z,65387.91
2022-09-11T04:54:34.816Z,65387.91
2022-09-11T04:57:02.455Z,65387.91
2022-09-11T04:59:30.065Z,65387.91
2022-09-11T05:01:57.737Z,65387.91
2022-09-11T05:04:27.654Z,65387.91
2022-09-11T05:06:55.200Z,65387.91
2022-09-11T05:09:22.872Z,65387.91
2022-09-11T05:11:50.349Z,65387.91
2022-09-11T05:14:18.258Z,65387.91
2022-09-11T05:16:45.900Z,65387.91
2022-09-11T05:19:13.348Z,65387.91
2022-09-11T05:21:43.404Z,65387.91
2022-09-11T05:24:11.435Z,65387.91
2022-09-11T05:26:39.188Z,65387.91
2022-09-11T05:29:09.029Z,65387.91
2022-09-11T05:31:37.127Z,65387.91
2022-09-11T05:34:05.488Z,65387.91
2022-09-11T05:36:33.377Z,65387.91
2022-09-11T05:39:02.149Z,65387.91
2022-09-11T05:41:29.730Z,65387.91
2022-09-11T05:43:58.985Z,65387.91
2022-09-11T05:46:26.576Z,65387.91
2022-09-11T05:48:54.460Z,65387.91
2022-09-11T05:51:22.774Z,65387.91
2022-09-11T05:53:53.881Z,65387.91
2022-09-11T05:56:25.498Z,65387.91
2022-09-11T05:58:52.898Z,65387.91
2022-09-11T06:01:22.979Z,65387.91
2022-09-11T06:03:50.916Z,65387.91
2022-09-11T06:06:21.102Z,65387.91
2022-09-11T06:08:49.884Z,65387.91
2022-09-11T06:11:19.150Z,65387.91
2022-09-11T06:13:48.861Z,65387.91
2022-09-11T06:16:18.798Z,65387.91
2022-09-11T06:18:49.321Z,65387.91
2022-09-11T06:21:19.901Z,65387.91
2022-09-11T06:23:47.615Z,65387.91
2022-09-11T06:26:17.086Z,65387.91
2022-09-11T06:28:44.545Z,65387.91
2022-09-11T06:31:16.277Z,65387.91
2022-09-11T06:33:44.244Z,65387.91
2022-09-11T06:36:14.316Z,65387.91
2022-09-11T06:38:41.689Z,65387.91
2022-09-11T06:41:12.571Z,65387.91
2022-09-11T06:43:40.309Z,65387.91
2022-09-11T06:46:09.160Z,65387.91
2022-09-11T06:48:37.917Z,65387.91
2022-09-11T06:51:05.781Z,65387.91
2022-09-11T06:53:33.239Z,65387.91
2022-09-11T06:56:01.182Z,65387.91
2022-09-11T06:58:29.313Z,65387.91
2022-09-11T07:00:56.831Z,65387.91
2022-09-11T07:03:24.280Z,65387.91
2022-09-11T07:05:53.183Z,65387.91
2022-09-11T07:08:24.860Z,65387.91
2022-09-11T07:10:54.344Z,65387.91
2022-09-11T07:13:24.226Z,65387.91
2022-09-11T07:16:00.664Z,65387.91
2022-09-11T07:18:33.416Z,65387.91
2022-09-11T07:21:06.221Z,65387.91
2022-09-11T07:23:34.650Z,65387.91
2022-09-11T07:26:05.414Z,65387.91
2022-09-11T07:28:34.735Z,65387.91
2022-09-11T07:31:11.417Z,65387.91
2022-09-11T07:33:39.281Z,65387.91
2022-09-11T07:36:12.359Z,65387.91
2022-09-11T07:38:40.512Z,65387.91
2022-09-11T07:41:08.993Z,65387.91
2022-09-11T07:43:36.684Z,65387.91
2022-09-11T07:46:05.276Z,65387.91
2022-09-11T07:48:33.139Z,65387.91
2022-09-11T07:51:03.463Z,65387.91
2022-09-11T07:53:34.406Z,65387.91
2022-09-11T07:56:06.570Z,65387.91
2022-09-11T07:58:35.016Z,65387.91
2022-09-11T08:01:03.520Z,65387.91
2022-09-11T08:03:31.352Z,65387.91
2022-09-11T08:06:55.729Z,65387.91
2022-09-11T08:09:33.271Z,65387.91
2022-09-11T08:13:00.964Z,65387.91
2022-09-11T08:16:27.798Z,65387.91
2022-09-11T08:19:54.284Z,65387.91
2022-09-11T08:22:39.906Z,65387.91
2022-09-11T08:26:08.312Z,65387.91
2022-09-11T08:29:34.841Z,65387.91
2022-09-11T08:32:13.452Z,65387.91
2022-09-11T08:34:51.244Z,65387.91
2022-09-11T08:38:14.256Z,65387.91
2022-09-11T08:41:43.293Z,65387.91
2022-09-11T08:45:17.702Z,65387.91
2022-09-11T08:48:48.868Z,65387.91
2022-09-11T08:52:13.631Z,65387.91
2022-09-11T08:55:43.747Z,65387.91
2022-09-11T08:59:20.284Z,65387.91
2022-09-11T09:03:01.209Z,65387.91
2022-09-11T09:06:39.912Z,65387.91
2022-09-11T09:09:26.358Z,65387.91
2022-09-11T09:12:43.181Z,65387.91
2022-09-11T09:16:25.611Z,65387.91
2022-09-11T09:20:00.423Z,65387.91
2022-09-11T09:23:32.807Z,65387.91
2022-09-11T09:26:29.070Z,65387.91
2022-09-11T09:29:56.720Z,65387.91
2022-09-11T09:33:31.617Z,65387.91
2022-09-11T09:37:05.269Z,65387.91
2022-09-11T09:40:33.733Z,65387.91
2022-09-11T09:44:04.885Z,65387.91
2022-09-11T09:47:33.665Z,65387.91
2022-09-11T09:50:56.400Z,65387.91
2022-09-11T09:54:28.845Z,65387.91
2022-09-11T09:57:56.643Z,65387.91
2022-09-11T10:01:43.933Z,65387.91
2022-09-11T10:05:19.302Z,65387.91
2022-09-11T10:08:45.801Z,65387.91
2022-09-11T10:12:15.757Z,65387.91
2022-09-11T10:15:40.700Z,65387.91
2022-09-11T10:19:39.599Z,65387.91
2022-09-11T10:23:25.635Z,65387.91
2022-09-11T10:26:54.302Z,65387.91
2022-09-11T10:30:41.897Z,65387.91
2022-09-11T10:34:16.988Z,65387.91
2022-09-11T10:38:00.650Z,65387.91
2022-09-11T10:41:27.503Z,65387.91
2022-09-11T10:45:08.572Z,65387.91
2022-09-11T10:48:34.536Z,65387.91
2022-09-11T10:52:17.453Z,65387.91
2022-09-11T10:55:49.697Z,65387.91
2022-09-11T10:59:22.760Z,65387.91
2022-09-11T11:02:50.067Z,65387.91
2022-09-11T11:06:25.743Z,65387.91
2022-09-11T11:10:15.619Z,65387.91
2022-09-11T11:13:55.888Z,65387.91
2022-09-11T11:17:29.300Z,65387.91
2022-09-11T11:21:09.355Z,65387.91
2022-09-11T11:24:57.915Z,65387.91
2022-09-11T11:28:48.870Z,65387.91
2022-09-11T11:31:40.330Z,65387.91
2022-09-11T11:35:34.175Z,65387.91
2022-09-11T11:39:07.608Z,65387.91
2022-09-11T11:42:38.616Z,65387.91
2022-09-11T11:46:12.171Z,65387.91
2022-09-11T11:49:53.272Z,65387.91
2022-09-11T11:52:46.984Z,65387.91
2022-09-11T11:55:45.530Z,65387.91
2022-09-11T11:58:22.318Z,65387.91
2022-09-11T12:00:56.800Z,65387.91
2022-09-11T12:03:30.659Z,65387.91
2022-09-11T12:05:58.169Z,65387.91
2022-09-11T12:08:28.156Z,65387.91
2022-09-11T12:11:00.134Z,65387.91
2022-09-11T12:13:37.843Z,65387.91
2022-09-11T12:16:13.568Z,65387.91
2022-09-11T12:19:04.062Z,65387.91
2022-09-11T12:21:42.334Z,65387.91
2022-09-11T12:24:17.709Z,65387.91
2022-09-11T12:27:11.657Z,65387.91
2022-09-11T12:31:03.415Z,65387.91
2022-09-11T12:34:58.349Z,65387.91
2022-09-11T12:38:31.935Z,65387.91
2022-09-11T12:42:29.072Z,65387.91
2022-09-11T12:45:57.859Z,65387.91
2022-09-11T12:49:31.835Z,65387.91
2022-09-11T12:53:02.349Z,65387.91
2022-09-11T12:56:32.555Z,65387.91
2022-09-11T13:00:03.768Z,65387.91
2022-09-11T13:03:34.024Z,65387.91
2022-09-11T13:07:04.037Z,65387.91
2022-09-11T13:10:33.205Z,65387.91
2022-09-11T13:13:59.731Z,65387.91
2022-09-11T13:16:31.045Z,65387.91
2022-09-11T13:19:01.320Z,65387.91
2022-09-11T13:21:28.666Z,65387.91
2022-09-11T13:24:00.931Z,65387.91
2022-09-11T13:26:31.410Z,65387.91
2022-09-11T13:29:01.072Z,65387.91
2022-09-11T13:31:39.271Z,65387.91
2022-09-11T13:34:13.977Z,65387.91
2022-09-11T13:36:41.612Z,65387.91
2022-09-11T13:39:10.414Z,65387.91
2022-09-11T13:41:40.991Z,65387.91
2022-09-11T13:44:12.138Z,65387.91
2022-09-11T13:46:52.080Z,100470.75
2022-09-11T13:49:36.117Z,100470.94
2022-09-11T13:52:06.214Z,100470.16
2022-09-11T13:54:38.155Z,100466.06
2022-09-11T13:57:28.042Z,100466.59
2022-09-11T13:59:57.124Z,100470.34
2022-09-11T14:02:56.383Z,100471.31
2022-09-11T14:05:25.977Z,100473.84
2022-09-11T14:08:01.331Z,100477.03
2022-09-11T14:10:32.818Z,100479.06
2022-09-11T14:13:06.335Z,100480.63
2022-09-11T14:15:42.240Z,100482.94
2022-09-11T14:18:21.356Z,100482.69
2022-09-11T14:20:49.036Z,100474.59
2022-09-11T14:23:24.211Z,100463.00
2022-09-11T14:26:06.188Z,100449.44
2022-09-11T14:28:37.473Z,100434.31
2022-09-11T14:31:09.110Z,100417.84
2022-09-11T14:33:38.052Z,100402.66
2022-09-11T14:36:12.985Z,100389.06
2022-09-11T14:38:40.608Z,100376.16
2022-09-11T14:41:08.420Z,100365.09
2022-09-11T14:43:38.502Z,100355.03
2022-09-11T14:46:06.508Z,100344.84
2022-09-11T14:48:35.742Z,100330.47
2022-09-11T14:51:12.705Z,100313.97
2022-09-11T14:53:43.258Z,100301.94
2022-09-11T14:56:10.936Z,100297.19
2022-09-11T14:58:38.636Z,100297.53
2022-09-11T15:01:06.230Z,100304.25
2022-09-11T15:03:33.669Z,100311.94
2022-09-11T15:06:01.215Z,100316.28
2022-09-11T15:08:29.885Z,100315.44
2022-09-11T15:10:57.234Z,100307.84
2022-09-11T15:13:24.646Z,100293.44
2022-09-11T15:15:52.062Z,100274.63
2022-09-11T15:18:19.965Z,100254.66
2022-09-11T15:20:47.331Z,100234.44
2022-09-11T15:23:16.365Z,100216.22
2022-09-11T15:25:45.056Z,100200.72
2022-09-11T15:28:12.540Z,100189.84
2022-09-11T15:30:40.380Z,100194.09
2022-09-11T15:33:07.763Z,100206.97
2022-09-11T15:35:35.140Z,100222.25
2022-09-11T15:38:04.301Z,100238.47
2022-09-11T15:40:32.461Z,100255.03
2022-09-11T15:43:01.125Z,100270.69
2022-09-11T15:45:28.515Z,100285.78
2022-09-11T15:47:56.144Z,100300.59
2022-09-11T15:50:28.188Z,100314.03
2022-09-11T15:52:55.518Z,100326.91
2022-09-11T15:55:22.892Z,100338.03
2022-09-11T15:57:50.240Z,100346.63
2022-09-11T16:00:19.006Z,100352.84
2022-09-11T16:02:46.376Z,100358.16
2022-09-11T16:05:14.943Z,100362.81
2022-09-11T16:07:42.305Z,100362.56
2022-09-11T16:10:10.511Z,100362.13
2022-09-11T16:12:39.488Z,100357.28
2022-09-11T16:15:07.825Z,100349.13
2022-09-11T16:17:36.753Z,100333.78
2022-09-11T16:20:04.495Z,100307.16
2022-09-11T16:22:32.249Z,100279.47
2022-09-11T16:24:59.911Z,100253.00
2022-09-11T16:27:27.313Z,100233.03
2022-09-11T16:32:45.231Z,100198.38
2022-09-11T16:35:13.695Z,100175.59
2022-09-11T16:37:41.179Z,100158.25
2022-09-11T16:40:09.715Z,100142.09
2022-09-11T16:42:37.156Z,100129.44
2022-09-11T16:45:07.189Z,100121.50
2022-09-11T16:47:35.014Z,100120.41
2022-09-11T16:50:08.126Z,100124.44
2022-09-11T16:52:38.484Z,100128.06
2022-09-11T16:55:07.497Z,100131.41
2022-09-11T16:57:35.390Z,100134.94
2022-09-11T17:00:03.148Z,100139.66
2022-09-11T17:02:30.488Z,100141.06
2022-09-11T17:04:57.852Z,100140.94
2022-09-11T17:07:26.669Z,100132.75
2022-09-11T17:09:54.552Z,100118.22
2022-09-11T17:12:22.242Z,100107.63
2022-09-11T17:14:50.001Z,100109.31
2022-09-11T17:17:17.595Z,100126.88
2022-09-11T17:19:44.944Z,100167.88
2022-09-11T17:22:12.371Z,100220.41
2022-09-11T17:24:41.067Z,100269.66
2022-09-11T17:27:10.291Z,100312.13
2022-09-11T17:29:42.397Z,100346.44
2022-09-11T17:32:27.930Z,100373.44
2022-09-11T17:34:58.372Z,100373.44
2022-09-11T17:37:26.745Z,100373.44
2022-09-11T17:39:55.690Z,100373.44
2022-09-11T17:42:23.685Z,65387.91
2022-09-11T17:44:51.122Z,65387.91
2022-09-11T17:47:20.459Z,65387.91
2022-09-11T17:49:49.221Z,65387.91
2022-09-11T17:52:16.895Z,65387.91
2022-09-11T17:54:44.239Z,65387.91
2022-09-11T17:57:12.943Z,65387.91
2022-09-11T17:59:40.494Z,65387.91
2022-09-11T18:02:14.048Z,65387.91
2022-09-11T18:04:41.560Z,100373.44
2022-09-11T18:07:09.250Z,100373.44
2022-09-11T18:09:37.139Z,100373.44
2022-09-11T18:12:04.827Z,100373.44
2022-09-11T18:14:37.740Z,100373.44
2022-09-11T18:17:05.431Z,100373.44
2022-09-11T18:19:33.166Z,100373.44
2022-09-11T18:22:00.789Z,100373.44
2022-09-11T18:24:29.922Z,100373.44
2022-09-11T18:27:00.742Z,100373.44
2022-09-11T18:29:30.157Z,100373.44
2022-09-11T18:32:00.210Z,100373.44
2022-09-11T18:34:28.908Z,100373.44
2022-09-11T18:36:56.403Z,100373.44
2022-09-11T18:39:23.901Z,65387.91
2022-09-11T18:41:52.636Z,65387.91
2022-09-11T18:44:22.469Z,65387.91
2022-09-11T18:49:21.891Z,65387.91
2022-09-11T18:54:20.015Z,120446.91
2022-09-11T18:56:50.442Z,65387.91
2022-09-11T18:59:19.310Z,76240.22
2022-09-11T19:01:46.838Z,65387.91
2022-09-11T19:04:16.492Z,65387.91
2022-09-11T19:06:46.145Z,65387.91
2022-09-11T19:09:14.578Z,65387.91
2022-09-11T19:11:43.472Z,65387.91
2022-09-11T19:16:40.928Z,65387.91
2022-09-11T19:19:09.789Z,65387.91
2022-09-11T19:21:38.692Z,65387.91
2022-09-11T19:24:08.465Z,65387.91
2022-09-11T19:26:38.729Z,65387.91
2022-09-11T19:29:08.412Z,65387.91
2022-09-11T19:31:39.134Z,65387.91
2022-09-11T19:34:07.732Z,65387.91
2022-09-11T19:36:36.788Z,65387.91
2022-09-11T19:39:05.532Z,65387.91
2022-09-11T19:44:04.414Z,65387.91
2022-09-11T19:46:33.490Z,65387.91
2022-09-11T19:49:02.821Z,65387.91
2022-09-11T19:51:32.092Z,65387.91
2022-09-11T19:54:02.552Z,65387.91
2022-09-11T19:56:32.208Z,65387.91
2022-09-11T19:59:03.744Z,65387.91
2022-09-11T20:01:32.369Z,65387.91
2022-09-11T20:04:00.968Z,65387.91
2022-09-11T20:06:33.676Z,65387.91
2022-09-11T20:09:30.461Z,65387.91
2022-09-11T20:12:07.583Z,65387.91
2022-09-11T20:14:40.630Z,65387.91
2022-09-11T20:17:13.357Z,65387.91
2022-09-11T20:19:45.583Z,65387.91
2022-09-11T20:22:21.890Z,65387.91
2022-09-11T20:25:00.722Z,65387.91
2022-09-11T20:27:55.545Z,65387.91
2022-09-11T20:31:14.359Z,65387.91
2022-09-11T20:34:27.745Z,65387.91
2022-09-11T20:37:53.784Z,65387.91
2022-09-11T20:41:20.327Z,65387.91
2022-09-11T20:43:54.229Z,65387.91
2022-09-11T20:46:28.967Z,65387.91
2022-09-11T20:49:00.985Z,65387.91
2022-09-11T20:51:57.841Z,65387.91
2022-09-11T20:55:23.787Z,65387.91
2022-09-11T20:58:49.748Z,65387.91
2022-09-11T21:02:19.008Z,65387.91
2022-09-11T21:05:45.067Z,65387.91
2022-09-11T21:09:12.199Z,65387.91
2022-09-11T21:12:07.078Z,65387.91
2022-09-11T21:14:57.237Z,65387.91
2022-09-11T21:17:35.681Z,65387.91
2022-09-11T21:20:41.736Z,65387.91
2022-09-11T21:24:11.081Z,65387.91
2022-09-11T21:26:50.541Z,65387.91
2022-09-11T21:29:20.265Z,65387.91
2022-09-11T21:32:03.197Z,65387.91
2022-09-11T21:34:56.031Z,65387.91
2022-09-11T21:37:42.705Z,65387.91
2022-09-11T21:40:11.608Z,65387.91
2022-09-11T21:42:42.693Z,65387.91
2022-09-11T21:45:28.424Z,65387.91
2022-09-11T21:48:24.338Z,65387.91
2022-09-11T21:51:06.188Z,65387.91
2022-09-11T21:53:37.296Z,65387.91
2022-09-11T21:56:49.859Z,65387.91
2022-09-11T21:59:25.343Z,65387.91
2022-09-11T22:02:51.220Z,65387.91
2022-09-11T22:05:21.905Z,65387.91
2022-09-11T22:08:40.905Z,65387.91
2022-09-11T22:12:01.820Z,65387.91
2022-09-11T22:14:44.164Z,65387.91
2022-09-11T22:17:26.605Z,65387.91
2022-09-11T22:19:56.402Z,65387.91
2022-09-11T22:23:23.576Z,65387.91
2022-09-11T22:26:56.409Z,65387.91
2022-09-11T22:30:23.483Z,65387.91
2022-09-11T22:33:31.531Z,65387.91
2022-09-11T22:36:56.946Z,65387.91
2022-09-11T22:40:18.989Z,65387.91
2022-09-11T22:43:08.024Z,65387.91
2022-09-11T22:45:37.760Z,65387.91
2022-09-11T22:48:45.324Z,65387.91
2022-09-11T22:51:47.381Z,65387.91
2022-09-11T22:55:11.972Z,65387.91
2022-09-11T22:58:39.141Z,65387.91
2022-09-11T23:01:43.875Z,65387.91
2022-09-11T23:05:27.627Z,65387.91
2022-09-11T23:08:54.000Z,65387.91
2022-09-11T23:12:21.610Z,65387.91
2022-09-11T23:15:47.629Z,65387.91
2022-09-11T23:19:14.682Z,65387.91
2022-09-11T23:22:40.748Z,65387.91
2022-09-11T23:26:01.516Z,65387.91
2022-09-11T23:29:28.824Z,65387.91
2022-09-11T23:32:55.134Z,65387.91
2022-09-11T23:36:14.012Z,65387.91
2022-09-11T23:38:58.277Z,65387.91
2022-09-11T23:42:24.693Z,65387.91
2022-09-11T23:45:52.075Z,65387.91
2022-09-11T23:49:18.020Z,65387.91
2022-09-11T23:52:43.895Z,65387.91
2022-09-11T23:56:11.380Z,65387.91
2022-09-11T23:59:04.138Z,65387.91
